Terminal Aerodrome Forecast
Issued by NWS Hastings, NE

Home | Current Version | Previous Version | Text Only | Print | Product List | Glossary On
Versions: 1 2 3 4 5 6 7 8 9 10 11 12 13 14 15 16 17 18 19 20 21 22 23 24 25 26 27 28 29 30 31 32 33 34
000
FTUS43 KGID 251248 AAA
TAFGRI
TAF AMD
KGRI 251248Z 2513/2612 01013G21KT P6SM OVC004
      TEMPO 2513/2516 4SM -DZ BR
     FM251800 36012KT P6SM OVC008
     FM252100 01011KT P6SM OVC010
     FM260200 04006KT P6SM BKN006
     FM260900 VRB03KT 1SM BR BKN003=

USA.gov is the U.S. government's official web portal to all federal, state and local government web resources and services.